createdAt,value
2022-08-28T00:03:15.590Z,100327.94
2022-08-28T00:06:38.381Z,100330.34
2022-08-28T00:09:59.354Z,100322.97
2022-08-28T00:13:26.387Z,100320.41
2022-08-28T00:16:48.233Z,100324.16
2022-08-28T00:20:09.350Z,100312.03
2022-08-28T00:23:38.807Z,100317.59
2022-08-28T00:27:21.371Z,100319.09
2022-08-28T00:30:42.387Z,100309.44
2022-08-28T00:34:03.373Z,100301.72
2022-08-28T00:37:24.735Z,100307.84
2022-08-28T00:40:45.416Z,100305.25
2022-08-28T00:44:20.354Z,100305.25
2022-08-28T00:47:41.366Z,100297.53
2022-08-28T00:51:38.390Z,100309.31
2022-08-28T00:55:07.412Z,100298.19
2022-08-28T00:58:28.363Z,100303.34
2022-08-28T01:01:50.396Z,100301.28
2022-08-28T01:05:11.349Z,100302.41
2022-08-28T01:08:32.389Z,100295.25
2022-08-28T01:11:56.399Z,100293.97
2022-08-28T01:15:24.376Z,100290.41
2022-08-28T01:18:47.364Z,100294.03
2022-08-28T01:22:57.365Z,100290.63
2022-08-28T01:26:18.379Z,100287.00
2022-08-28T01:29:39.396Z,100286.75
2022-08-28T01:33:04.416Z,100290.22
2022-08-28T01:36:26.375Z,100275.03
2022-08-28T01:39:47.414Z,100280.59
2022-08-28T01:43:08.392Z,100281.53
2022-08-28T01:46:29.441Z,100283.97
2022-08-28T01:49:50.386Z,100272.28
2022-08-28T01:53:12.488Z,100272.66
2022-08-28T01:56:33.387Z,100274.59
2022-08-28T01:59:54.390Z,100277.97
2022-08-28T02:03:16.378Z,100267.47
2022-08-28T02:06:37.401Z,100268.56
2022-08-28T02:09:58.388Z,100272.84
2022-08-28T02:13:20.388Z,100279.16
2022-08-28T02:16:41.395Z,100284.97
2022-08-28T02:20:02.393Z,100270.69
2022-08-28T02:23:24.369Z,100272.28
2022-08-28T02:26:45.410Z,100279.34
2022-08-28T02:30:06.383Z,100276.44
2022-08-28T02:33:27.411Z,100265.00
2022-08-28T02:36:48.403Z,100265.06
2022-08-28T02:40:10.448Z,100269.28
2022-08-28T02:46:52.389Z,100268.47
2022-08-28T02:53:35.417Z,100267.53
2022-08-28T02:56:56.426Z,100260.69
2022-08-28T03:00:23.432Z,100271.06
2022-08-28T03:03:46.431Z,100269.38
2022-08-28T03:07:07.427Z,100260.31
2022-08-28T03:10:28.419Z,100271.16
2022-08-28T03:13:49.424Z,100268.03
2022-08-28T03:17:10.428Z,100259.91
2022-08-28T03:20:31.410Z,100258.69
2022-08-28T03:23:53.430Z,100263.94
2022-08-28T03:27:14.416Z,100257.50
2022-08-28T03:30:36.448Z,100255.22
2022-08-28T03:33:57.425Z,100256.16
2022-08-28T03:37:18.439Z,100246.28
2022-08-28T03:40:39.462Z,100254.72
2022-08-28T03:44:00.450Z,100252.94
2022-08-28T03:47:21.572Z,100254.66
2022-08-28T03:50:42.481Z,100254.19
2022-08-28T03:54:04.429Z,100251.13
2022-08-28T03:57:25.453Z,100245.03
2022-08-28T04:00:46.439Z,100252.91
2022-08-28T04:04:07.457Z,100246.78
2022-08-28T04:07:29.647Z,100248.25
2022-08-28T04:10:51.434Z,100246.72
2022-08-28T04:14:12.432Z,100256.88
2022-08-28T04:17:33.438Z,100263.47
2022-08-28T04:20:54.418Z,100252.53
2022-08-28T04:24:15.452Z,100249.94
2022-08-28T04:27:36.430Z,100253.22
2022-08-28T04:30:57.472Z,100250.16
2022-08-28T04:34:20.461Z,100235.34
2022-08-28T04:37:44.440Z,100247.69
2022-08-28T04:41:05.462Z,100251.78
2022-08-28T04:44:26.448Z,100256.63
2022-08-28T04:47:52.479Z,100261.69
2022-08-28T04:51:13.453Z,100255.31
2022-08-28T04:54:34.489Z,100242.09
2022-08-28T04:57:55.458Z,100239.50
2022-08-28T05:01:22.580Z,100250.78
2022-08-28T05:04:43.463Z,100246.94
2022-08-28T05:08:04.462Z,100243.34
2022-08-28T05:11:34.078Z,100240.47
2022-08-28T05:14:55.459Z,100237.25
2022-08-28T05:18:16.442Z,100216.34
2022-08-28T05:21:37.470Z,100231.59
2022-08-28T05:24:58.459Z,100229.56
2022-08-28T05:28:20.498Z,100223.94
2022-08-28T05:31:46.228Z,100213.44
2022-08-28T05:35:07.473Z,100221.47
2022-08-28T05:38:30.468Z,100214.63
2022-08-28T05:41:54.491Z,100213.81
2022-08-28T05:45:15.462Z,100215.91
2022-08-28T05:48:39.460Z,100204.25
2022-08-28T05:52:00.456Z,100203.50
2022-08-28T05:55:16.513Z,100202.53
2022-08-28T05:58:37.451Z,100185.25
2022-08-28T06:01:54.532Z,100186.06
2022-08-28T06:05:15.456Z,100177.28
2022-08-28T06:08:36.484Z,100173.44
2022-08-28T06:11:58.459Z,100177.38
2022-08-28T06:15:19.500Z,100183.22
2022-08-28T06:18:41.528Z,100183.22
2022-08-28T06:22:07.123Z,100181.63
2022-08-28T06:25:28.532Z,100176.06
2022-08-28T06:28:49.484Z,100172.06
2022-08-28T06:32:13.582Z,100169.47
2022-08-28T06:35:34.509Z,100169.16
2022-08-28T06:38:55.555Z,100175.78
2022-08-28T06:42:16.522Z,100170.19
2022-08-28T06:45:37.610Z,100166.22
2022-08-28T06:48:58.477Z,100165.69
2022-08-28T06:52:19.492Z,100173.06
2022-08-28T06:55:40.485Z,100168.22
2022-08-28T06:59:02.495Z,100161.47
2022-08-28T07:02:23.555Z,100170.63
2022-08-28T07:05:49.492Z,100162.44
2022-08-28T07:09:10.527Z,100162.13
2022-08-28T07:12:31.518Z,100157.06
2022-08-28T07:15:52.663Z,100157.63
2022-08-28T07:19:14.513Z,100161.47
2022-08-28T07:22:35.505Z,100163.66
2022-08-28T07:25:56.584Z,100162.09
2022-08-28T07:29:18.503Z,100159.50
2022-08-28T07:32:40.503Z,100159.00
2022-08-28T07:36:01.486Z,100161.72
2022-08-28T07:39:24.498Z,100156.69
2022-08-28T07:42:56.528Z,100163.38
2022-08-28T07:46:20.562Z,100164.72
2022-08-28T07:49:41.499Z,100154.38
2022-08-28T07:53:02.533Z,100166.41
2022-08-28T07:56:23.529Z,100165.34
2022-08-28T07:59:44.522Z,100160.53
2022-08-28T08:03:05.597Z,100165.63
2022-08-28T08:06:26.516Z,100168.28
2022-08-28T08:09:54.531Z,100164.81
2022-08-28T08:13:18.505Z,100164.53
2022-08-28T08:16:40.614Z,100163.97
2022-08-28T08:20:01.612Z,100152.38
2022-08-28T08:23:22.591Z,100151.50
2022-08-28T08:26:43.559Z,100151.66
2022-08-28T08:30:10.545Z,100153.06
2022-08-28T08:33:31.515Z,100147.41
2022-08-28T08:36:52.541Z,100155.53
2022-08-28T08:40:13.589Z,100155.31
2022-08-28T08:43:35.532Z,100149.56
2022-08-28T08:47:13.227Z,100150.41
2022-08-28T08:50:48.527Z,100146.47
2022-08-28T08:54:19.522Z,100148.13
2022-08-28T08:57:41.540Z,100144.94
2022-08-28T09:01:36.584Z,100135.84
2022-08-28T09:05:07.617Z,100134.16
2022-08-28T09:08:39.557Z,100131.25
2022-08-28T09:12:10.526Z,100134.72
2022-08-28T09:15:50.491Z,100136.38
2022-08-28T09:19:12.542Z,100129.63
2022-08-28T09:22:33.552Z,100125.22
2022-08-28T09:26:10.528Z,100122.97
2022-08-28T09:29:39.556Z,100115.63
2022-08-28T09:33:11.530Z,100120.19
2022-08-28T09:36:47.550Z,100114.28
2022-08-28T09:40:58.596Z,100119.88
2022-08-28T09:44:19.541Z,100125.00
2022-08-28T09:47:55.557Z,100121.06
2022-08-28T09:51:45.557Z,100112.19
2022-08-28T09:55:06.546Z,100113.03
2022-08-28T09:58:27.546Z,100111.25
2022-08-28T10:01:55.593Z,100106.38
2022-08-28T10:05:26.784Z,100102.53
2022-08-28T10:08:48.573Z,100101.38
2022-08-28T10:12:23.531Z,100099.16
2022-08-28T10:15:47.650Z,100085.19
2022-08-28T10:19:33.576Z,100083.00
2022-08-28T10:23:27.550Z,100081.66
2022-08-28T10:26:55.563Z,100075.59
2022-08-28T10:30:29.550Z,100075.47
2022-08-28T10:33:50.563Z,100070.75
2022-08-28T10:37:28.566Z,100070.13
2022-08-28T10:41:04.557Z,100064.00
2022-08-28T10:44:32.551Z,100065.22
2022-08-28T10:47:58.577Z,100065.47
2022-08-28T10:51:35.268Z,100064.03
2022-08-28T10:55:19.568Z,100058.28
2022-08-28T10:58:41.583Z,100068.97
2022-08-28T11:02:03.580Z,100056.34
2022-08-28T11:05:24.593Z,100057.91
2022-08-28T11:08:49.559Z,100055.88
2022-08-28T11:12:19.577Z,100053.47
2022-08-28T11:15:43.570Z,100043.19
2022-08-28T11:19:20.591Z,100035.78
2022-08-28T11:22:55.564Z,100036.75
2022-08-28T11:26:22.583Z,100034.22
2022-08-28T11:30:11.571Z,100025.59
2022-08-28T11:34:07.588Z,100030.53
2022-08-28T11:37:56.591Z,100027.69
2022-08-28T11:42:09.591Z,100020.34
2022-08-28T11:45:56.648Z,100022.00
2022-08-28T11:49:35.590Z,100015.28
2022-08-28T11:53:15.615Z,100014.00
2022-08-28T11:57:02.622Z,100007.97
2022-08-28T12:00:34.596Z,100017.69
2022-08-28T12:04:08.446Z,100012.13
2022-08-28T12:07:29.631Z,100006.59
2022-08-28T12:10:53.614Z,100008.97
2022-08-28T12:14:14.595Z,100003.63
2022-08-28T12:17:36.599Z,99994.69
2022-08-28T12:21:07.299Z,100001.78
2022-08-28T12:24:37.615Z,100002.59
2022-08-28T12:27:59.596Z,100001.72
2022-08-28T12:31:20.723Z,100000.66
2022-08-28T12:34:59.582Z,99994.91
2022-08-28T12:38:21.612Z,99993.03
2022-08-28T12:41:36.598Z,99993.44
2022-08-28T12:44:58.599Z,99991.09
2022-08-28T12:48:30.593Z,99986.19
2022-08-28T12:51:51.616Z,99992.91
2022-08-28T12:55:12.601Z,99987.34
2022-08-28T12:58:47.614Z,99985.94
2022-08-28T13:02:25.693Z,99975.75
2022-08-28T13:05:51.617Z,99972.72
2022-08-28T13:09:30.606Z,99975.53
2022-08-28T13:12:56.096Z,99963.41
2022-08-28T13:16:23.623Z,99977.84
2022-08-28T13:19:45.598Z,99967.94
2022-08-28T13:23:06.667Z,99972.25
2022-08-28T13:26:39.602Z,99969.34
2022-08-28T13:30:27.675Z,99970.47
2022-08-28T13:33:48.638Z,99963.41
2022-08-28T13:37:55.620Z,99959.41
2022-08-28T13:41:18.660Z,99959.75
2022-08-28T13:44:46.623Z,99957.19
2022-08-28T13:48:07.624Z,99952.72
2022-08-28T13:51:28.613Z,99958.03
2022-08-28T13:54:50.676Z,99951.47
2022-08-28T13:58:11.622Z,99950.34
2022-08-28T14:01:55.736Z,99945.00
2022-08-28T14:05:16.627Z,99955.66
2022-08-28T14:08:37.695Z,99953.47
2022-08-28T14:11:59.643Z,99950.31
2022-08-28T14:15:20.657Z,99967.78
2022-08-28T14:18:41.621Z,99957.38
2022-08-28T14:22:02.639Z,99959.47
2022-08-28T14:25:23.635Z,99959.13
2022-08-28T14:28:44.661Z,99956.56
2022-08-28T14:32:06.703Z,99957.03
2022-08-28T14:35:27.619Z,99957.53
2022-08-28T14:38:48.620Z,99953.06
2022-08-28T14:42:12.937Z,99956.19
2022-08-28T14:45:33.686Z,99950.03
2022-08-28T14:48:54.647Z,99947.22
2022-08-28T14:52:15.625Z,99946.41
2022-08-28T14:55:36.622Z,99942.50
2022-08-28T14:58:57.639Z,99937.16
2022-08-28T15:02:19.636Z,99936.13
2022-08-28T15:05:40.621Z,99934.69
2022-08-28T15:09:01.637Z,99939.13
2022-08-28T15:12:22.617Z,99929.78
2022-08-28T15:15:43.648Z,99932.47
2022-08-28T15:19:05.642Z,99932.50
2022-08-28T15:22:27.444Z,99931.91
2022-08-28T15:25:48.666Z,99932.88
2022-08-28T15:29:10.645Z,99929.91
2022-08-28T15:32:31.651Z,99921.63
2022-08-28T15:35:52.642Z,99921.75
2022-08-28T15:39:31.670Z,99918.28
2022-08-28T15:42:52.654Z,99912.13
2022-08-28T15:46:13.707Z,99911.66
2022-08-28T15:49:36.187Z,99907.56
2022-08-28T15:53:06.614Z,99907.06
2022-08-28T15:56:29.642Z,99908.16
2022-08-28T15:59:50.962Z,99910.13
2022-08-28T16:03:12.903Z,99903.84
2022-08-28T16:06:35.666Z,99901.88
2022-08-28T16:09:56.656Z,99906.06
2022-08-28T16:13:12.822Z,99903.47
2022-08-28T16:16:33.790Z,99900.00
2022-08-28T16:19:55.679Z,99904.00
2022-08-28T16:23:17.655Z,99905.09
2022-08-28T16:26:38.684Z,99897.75
2022-08-28T16:29:59.684Z,99894.38
2022-08-28T16:33:26.678Z,99903.09
2022-08-28T16:36:47.685Z,99897.09
2022-08-28T16:40:08.686Z,99893.53
2022-08-28T16:43:22.671Z,99890.13
2022-08-28T16:46:44.696Z,99886.25
2022-08-28T16:50:12.685Z,99890.06
2022-08-28T16:53:33.673Z,99889.06
2022-08-28T16:56:54.685Z,99888.53
2022-08-28T17:00:17.680Z,99879.50
2022-08-28T17:03:38.721Z,99880.78
2022-08-28T17:06:59.684Z,99884.00
2022-08-28T17:10:22.679Z,99892.06
2022-08-28T17:13:43.675Z,99888.84
2022-08-28T17:17:05.703Z,99889.41
2022-08-28T17:20:45.680Z,99889.97
2022-08-28T17:24:06.709Z,99889.47
2022-08-28T17:27:27.701Z,99885.72
2022-08-28T17:30:48.692Z,99884.13
2022-08-28T17:34:09.741Z,99886.81
2022-08-28T17:37:31.753Z,99879.13
2022-08-28T17:40:52.697Z,99870.31
2022-08-28T17:44:14.715Z,99881.00
2022-08-28T17:47:35.656Z,99870.59
2022-08-28T17:50:57.737Z,99864.69
2022-08-28T17:54:18.695Z,99855.88
2022-08-28T17:57:40.834Z,99853.16
2022-08-28T18:01:01.758Z,99850.00
2022-08-28T18:04:24.495Z,99858.31
2022-08-28T18:07:45.685Z,99859.09
2022-08-28T18:11:06.711Z,99861.84
2022-08-28T18:14:27.699Z,99855.19
2022-08-28T18:17:54.704Z,99850.19
2022-08-28T18:21:15.718Z,99851.28
2022-08-28T18:24:36.703Z,99861.91
2022-08-28T18:27:57.726Z,99859.56
2022-08-28T18:31:19.781Z,99856.41
2022-08-28T18:34:40.741Z,99844.97
2022-08-28T18:38:03.704Z,99853.97
2022-08-28T18:41:30.672Z,99855.34
2022-08-28T18:45:04.760Z,99867.38
2022-08-28T18:48:25.768Z,99856.72
2022-08-28T18:51:46.734Z,99859.69
2022-08-28T18:55:07.726Z,99855.72
2022-08-28T18:58:28.807Z,99853.03
2022-08-28T19:01:49.843Z,99855.16
2022-08-28T19:05:10.827Z,99849.31
2022-08-28T19:08:31.749Z,99841.31
2022-08-28T19:11:52.728Z,99840.56
2022-08-28T19:15:13.764Z,99849.88
2022-08-28T19:18:35.713Z,99847.75
2022-08-28T19:21:56.747Z,99850.44
2022-08-28T19:25:27.907Z,99850.16
2022-08-28T19:28:51.746Z,99844.28
2022-08-28T19:32:12.741Z,99843.75
2022-08-28T19:35:33.758Z,99849.31
2022-08-28T19:38:54.719Z,99845.03
2022-08-28T19:42:15.730Z,99846.38
2022-08-28T19:45:36.721Z,99839.19
2022-08-28T19:48:57.767Z,99840.25
2022-08-28T19:52:18.717Z,99840.25
2022-08-28T19:55:40.755Z,99838.13
2022-08-28T19:59:01.777Z,99838.94
2022-08-28T20:02:22.854Z,99834.66
2022-08-28T20:05:43.774Z,99835.47
2022-08-28T20:09:06.593Z,99832.50
2022-08-28T20:12:31.782Z,99834.63
2022-08-28T20:15:59.798Z,99839.16
2022-08-28T20:19:22.755Z,99834.34
2022-08-28T20:22:43.743Z,99841.25
2022-08-28T20:26:05.752Z,99842.59
2022-08-28T20:29:26.746Z,99831.69
2022-08-28T20:32:47.749Z,99820.72
2022-08-28T20:36:16.320Z,99831.63
2022-08-28T20:39:43.780Z,99834.25
2022-08-28T20:43:04.737Z,99829.72
2022-08-28T20:46:27.784Z,99830.53
2022-08-28T20:49:48.738Z,99829.47
2022-08-28T20:53:10.754Z,99829.00
2022-08-28T20:56:31.735Z,99811.19
2022-08-28T20:59:55.745Z,99816.75
2022-08-28T21:03:18.795Z,99825.28
2022-08-28T21:06:46.758Z,99822.63
2022-08-28T21:10:08.240Z,99822.34
2022-08-28T21:13:28.768Z,99812.72
2022-08-28T21:16:51.811Z,99805.25
2022-08-28T21:20:15.763Z,99801.78
2022-08-28T21:23:36.784Z,99802.56
2022-08-28T21:27:00.804Z,99801.75
2022-08-28T21:30:23.784Z,99799.59
2022-08-28T21:33:50.764Z,99803.28
2022-08-28T21:37:12.779Z,99804.16
2022-08-28T21:40:33.819Z,99798.38
2022-08-28T21:43:57.783Z,99785.50
2022-08-28T21:47:18.885Z,99783.72
2022-08-28T21:50:39.776Z,99795.06
2022-08-28T21:54:00.802Z,99781.25
2022-08-28T21:57:21.798Z,99787.25
2022-08-28T22:00:42.774Z,99785.16
2022-08-28T22:04:03.807Z,99785.50
2022-08-28T22:07:33.789Z,99771.22
2022-08-28T22:10:56.808Z,99769.34
2022-08-28T22:14:17.815Z,99775.13
2022-08-28T22:17:38.806Z,99769.03
2022-08-28T22:21:18.794Z,99767.84
2022-08-28T22:24:39.807Z,99766.16
2022-08-28T22:28:00.805Z,99774.53
2022-08-28T22:31:21.809Z,99768.84
2022-08-28T22:34:35.844Z,99754.44
2022-08-28T22:37:56.807Z,99754.72
2022-08-28T22:44:38.820Z,99757.16
2022-08-28T22:48:00.810Z,99754.22
2022-08-28T22:51:24.870Z,99747.59
2022-08-28T22:54:46.826Z,99755.69
2022-08-28T22:58:07.884Z,99749.03
2022-08-28T23:01:31.843Z,99740.47
2022-08-28T23:04:52.824Z,99740.47
2022-08-28T23:08:13.916Z,99744.72
2022-08-28T23:11:34.870Z,99739.97
2022-08-28T23:14:55.863Z,99743.19
2022-08-28T23:18:16.829Z,99734.03
2022-08-28T23:21:43.955Z,99739.63
2022-08-28T23:25:04.830Z,99731.69
2022-08-28T23:28:26.861Z,99724.78
2022-08-28T23:31:47.946Z,99720.53
2022-08-28T23:35:08.835Z,99715.78
2022-08-28T23:38:29.840Z,99718.50
2022-08-28T23:41:50.843Z,99724.63
2022-08-28T23:45:11.831Z,99722.56
2022-08-28T23:51:54.821Z,99719.09
2022-08-28T23:55:15.861Z,99709.34
2022-08-28T23:58:36.799Z,99711.00
